createdAt,value
2023-04-22T00:01:35.935Z,99438.06
2023-04-22T00:04:03.099Z,99435.06
2023-04-22T00:06:31.452Z,99432.15
2023-04-22T00:08:58.700Z,99430.74
2023-04-22T00:11:25.773Z,99429.55
2023-04-22T00:13:52.619Z,99429.84
2023-04-22T00:16:19.739Z,99428.89
2023-04-22T00:18:46.665Z,99428.36
2023-04-22T00:21:13.347Z,99424.94
2023-04-22T00:23:40.663Z,99423.48
2023-04-22T00:26:07.371Z,99424.50
2023-04-22T00:28:36.494Z,99422.81
2023-04-22T00:31:04.174Z,99430.48
2023-04-22T00:33:31.322Z,99434.95
2023-04-22T00:35:58.055Z,99441.19
2023-04-22T00:38:24.880Z,99443.08
2023-04-22T00:40:52.932Z,99442.30
2023-04-22T00:43:19.591Z,99438.08
2023-04-22T00:45:46.854Z,99436.10
2023-04-22T00:48:13.624Z,99435.00
2023-04-22T00:50:40.517Z,99440.88
2023-04-22T00:53:07.244Z,99437.96
2023-04-22T00:55:34.340Z,99439.66
2023-04-22T00:58:01.298Z,99439.36
2023-04-22T01:00:28.224Z,99438.91
2023-04-22T01:02:55.672Z,99437.10
2023-04-22T01:05:25.841Z,99438.00
2023-04-22T01:07:53.069Z,99440.59
2023-04-22T01:10:20.342Z,99437.92
2023-04-22T01:12:47.221Z,99438.64
2023-04-22T01:15:13.973Z,99438.85
2023-04-22T01:17:40.866Z,99440.19
2023-04-22T01:20:09.896Z,99443.27
2023-04-22T01:22:42.350Z,99443.46
2023-04-22T01:25:09.583Z,99446.67
2023-04-22T01:27:36.756Z,99443.47
2023-04-22T01:30:04.729Z,99446.05
2023-04-22T01:32:32.611Z,99445.30
2023-04-22T01:34:59.349Z,99439.45
2023-04-22T01:37:26.381Z,99444.86
2023-04-22T01:39:53.109Z,99444.86
2023-04-22T01:42:20.965Z,99442.52
2023-04-22T01:44:48.744Z,99443.82
2023-04-22T01:47:15.442Z,99443.48
2023-04-22T01:49:42.507Z,99445.73
2023-04-22T01:52:09.260Z,99448.14
2023-04-22T01:54:36.456Z,99446.85
2023-04-22T01:57:08.066Z,99448.48
2023-04-22T01:59:34.864Z,99446.30
2023-04-22T02:02:01.628Z,99451.72
2023-04-22T02:04:28.654Z,99448.89
2023-04-22T02:06:55.470Z,99450.69
2023-04-22T02:09:22.205Z,99452.77
2023-04-22T02:11:49.963Z,99456.67
2023-04-22T02:14:16.957Z,99454.05
2023-04-22T02:16:43.688Z,99457.90
2023-04-22T02:19:10.769Z,99458.54
2023-04-22T02:21:37.553Z,99459.20
2023-04-22T02:24:04.584Z,99458.38
2023-04-22T02:26:31.324Z,99458.83
2023-04-22T02:28:58.152Z,99457.64
2023-04-22T02:31:25.607Z,99456.77
2023-04-22T02:33:53.196Z,99459.58
2023-04-22T02:36:20.017Z,99459.73
2023-04-22T02:38:48.515Z,99462.92
2023-04-22T02:41:15.292Z,99458.19
2023-04-22T02:43:45.472Z,99458.31
2023-04-22T02:46:13.201Z,99457.36
2023-04-22T02:48:40.413Z,99454.78
2023-04-22T02:51:08.416Z,99455.72
2023-04-22T02:53:35.679Z,99456.30
2023-04-22T02:56:02.424Z,99457.32
2023-04-22T02:58:29.762Z,99459.16
2023-04-22T03:00:57.346Z,99459.52
2023-04-22T03:03:24.237Z,99462.81
2023-04-22T03:05:51.279Z,99465.94
2023-04-22T03:08:19.757Z,99468.19
2023-04-22T03:10:47.396Z,99469.14
2023-04-22T03:13:14.390Z,99472.80
2023-04-22T03:15:41.577Z,99473.00
2023-04-22T03:18:10.537Z,99475.80
2023-04-22T03:20:37.816Z,99475.14
2023-04-22T03:23:09.009Z,99475.10
2023-04-22T03:25:36.382Z,99477.74
2023-04-22T03:28:03.692Z,99482.92
2023-04-22T03:30:30.713Z,99484.37
2023-04-22T03:32:57.819Z,99484.95
2023-04-22T03:35:35.413Z,99488.95
2023-04-22T03:38:02.182Z,99489.77
2023-04-22T03:40:32.255Z,99494.88
2023-04-22T03:42:59.619Z,99492.55
2023-04-22T03:45:26.694Z,99493.45
2023-04-22T03:48:09.064Z,99493.60
2023-04-22T03:50:39.376Z,99501.25
2023-04-22T03:53:06.092Z,99505.11
2023-04-22T03:55:33.386Z,99506.17
2023-04-22T03:58:00.744Z,99506.64
2023-04-22T04:00:27.642Z,99507.84
2023-04-22T04:03:03.176Z,99511.21
2023-04-22T04:05:31.220Z,99514.59
2023-04-22T04:07:58.006Z,99516.42
2023-04-22T04:10:26.411Z,99519.67
2023-04-22T04:12:54.570Z,99520.99
2023-04-22T04:15:21.601Z,99522.08
2023-04-22T04:17:48.486Z,99523.87
2023-04-22T04:20:15.952Z,99526.30
2023-04-22T04:22:42.982Z,99529.71
2023-04-22T04:25:10.002Z,99533.02
2023-04-22T04:27:41.048Z,99532.33
2023-04-22T04:30:09.242Z,99534.71
2023-04-22T04:32:42.413Z,99536.14
2023-04-22T04:35:13.539Z,99541.67
2023-04-22T04:37:42.680Z,99537.69
2023-04-22T04:40:11.652Z,99544.22
2023-04-22T04:42:43.663Z,99547.76
2023-04-22T04:45:17.039Z,99544.11
2023-04-22T04:47:44.615Z,99545.29
2023-04-22T04:50:19.617Z,99544.05
2023-04-22T04:52:48.219Z,99547.95
2023-04-22T04:55:16.976Z,99546.84
2023-04-22T04:57:46.193Z,99548.59
2023-04-22T05:00:15.812Z,99549.97
2023-04-22T05:02:43.860Z,99549.59
2023-04-22T05:05:11.624Z,99549.90
2023-04-22T05:07:46.327Z,99552.48
2023-04-22T05:10:15.621Z,99549.98
2023-04-22T05:12:45.572Z,99544.95
2023-04-22T05:15:16.523Z,99550.06
2023-04-22T05:17:43.787Z,99547.41
2023-04-22T05:20:11.604Z,99545.64
2023-04-22T05:22:43.976Z,99551.21
2023-04-22T05:25:11.246Z,99553.30
2023-04-22T05:27:40.952Z,99556.96
2023-04-22T05:30:08.589Z,99558.80
2023-04-22T05:32:36.442Z,99556.62
2023-04-22T05:35:05.406Z,99559.35
2023-04-22T05:37:32.867Z,99563.29
2023-04-22T05:40:00.376Z,99559.14
2023-04-22T05:42:27.791Z,99563.33
2023-04-22T05:44:56.005Z,99562.77
2023-04-22T05:47:23.069Z,99564.80
2023-04-22T05:49:50.304Z,99568.06
2023-04-22T05:52:30.866Z,99566.86
2023-04-22T05:55:20.453Z,99570.17
2023-04-22T05:57:52.875Z,99569.92
2023-04-22T06:03:22.711Z,99570.21
2023-04-22T06:05:50.147Z,99574.31
2023-04-22T06:08:18.996Z,99571.16
2023-04-22T06:10:47.157Z,99570.30
2023-04-22T06:13:13.932Z,99575.39
2023-04-22T06:15:41.279Z,99576.15
2023-04-22T06:18:08.115Z,99576.94
2023-04-22T06:20:35.745Z,99577.15
2023-04-22T06:23:04.758Z,99572.88
2023-04-22T06:25:32.241Z,99575.78
2023-04-22T06:27:59.275Z,99576.67
2023-04-22T06:30:27.023Z,99573.71
2023-04-22T06:32:55.602Z,99576.66
2023-04-22T06:35:22.740Z,99574.66
2023-04-22T06:37:49.722Z,99576.27
2023-04-22T06:40:17.167Z,99582.77
2023-04-22T06:42:53.678Z,99587.64
2023-04-22T06:45:44.490Z,99585.17
2023-04-22T06:48:31.591Z,99585.66
2023-04-22T06:51:18.446Z,99586.42
2023-04-22T06:53:45.906Z,99587.67
2023-04-22T06:56:15.162Z,99590.35
2023-04-22T06:58:42.040Z,99591.77
2023-04-22T07:01:08.946Z,99590.04
2023-04-22T07:03:36.573Z,99593.63
2023-04-22T07:06:07.798Z,99597.55
2023-04-22T07:08:34.889Z,99597.48
2023-04-22T07:11:04.285Z,99598.41
2023-04-22T07:13:36.565Z,99593.83
2023-04-22T07:16:03.503Z,99596.56
2023-04-22T07:18:30.730Z,99597.08
2023-04-22T07:21:05.232Z,99596.65
2023-04-22T07:23:32.794Z,99597.02
2023-04-22T07:26:01.294Z,99602.66
2023-04-22T07:28:28.379Z,99604.09
2023-04-22T07:30:56.861Z,99605.94
2023-04-22T07:33:24.425Z,99607.45
2023-04-22T07:35:51.118Z,99608.02
2023-04-22T07:38:17.805Z,99608.71
2023-04-22T07:40:45.130Z,99610.91
2023-04-22T07:43:13.738Z,99616.02
2023-04-22T07:45:42.904Z,99617.83
2023-04-22T07:48:11.224Z,99621.86
2023-04-22T07:50:41.906Z,99622.71
2023-04-22T07:53:10.384Z,99622.46
2023-04-22T07:55:37.444Z,99624.59
2023-04-22T07:58:05.905Z,99627.90
2023-04-22T08:00:34.483Z,99629.48
2023-04-22T08:03:02.412Z,99628.69
2023-04-22T08:05:29.439Z,99628.07
2023-04-22T08:07:56.316Z,99628.59
2023-04-22T08:10:25.761Z,99629.95
2023-04-22T08:12:53.169Z,99630.99
2023-04-22T08:15:20.269Z,99628.84
2023-04-22T08:17:50.308Z,99627.44
2023-04-22T08:20:18.051Z,99632.42
2023-04-22T08:22:45.098Z,99631.62
2023-04-22T08:25:12.179Z,99631.36
2023-04-22T08:27:39.289Z,99633.64
2023-04-22T08:30:06.749Z,99633.02
2023-04-22T08:32:33.851Z,99632.57
2023-04-22T08:35:05.450Z,99635.69
2023-04-22T08:37:34.659Z,99633.13
2023-04-22T08:40:04.778Z,99631.09
2023-04-22T08:42:32.650Z,99640.57
2023-04-22T08:45:01.022Z,99637.30
2023-04-22T08:47:27.994Z,99637.52
2023-04-22T08:49:55.186Z,99636.23
2023-04-22T08:52:22.338Z,99638.86
2023-04-22T08:54:50.734Z,99633.33
2023-04-22T08:57:18.029Z,99627.75
2023-04-22T08:59:44.905Z,99627.39
2023-04-22T09:02:15.180Z,99634.23
2023-04-22T09:04:42.794Z,99633.23
2023-04-22T09:07:10.430Z,99635.52
2023-04-22T09:09:37.370Z,99633.88
2023-04-22T09:12:07.174Z,99638.38
2023-04-22T09:14:34.240Z,99644.24
2023-04-22T09:17:02.540Z,99641.29
2023-04-22T09:19:29.930Z,99642.09
2023-04-22T09:21:59.885Z,99641.38
2023-04-22T09:24:26.786Z,99638.48
2023-04-22T09:26:55.027Z,99637.96
2023-04-22T09:29:23.837Z,99639.63
2023-04-22T09:31:51.499Z,99642.20
2023-04-22T09:34:26.692Z,99647.41
2023-04-22T09:36:54.997Z,99644.23
2023-04-22T09:39:21.884Z,99644.61
2023-04-22T09:41:48.590Z,99639.10
2023-04-22T09:44:17.596Z,99647.00
2023-04-22T09:46:47.218Z,99650.58
2023-04-22T09:49:16.087Z,99649.66
2023-04-22T09:51:49.895Z,99644.64
2023-04-22T09:54:23.048Z,99646.90
2023-04-22T09:56:54.623Z,99646.02
2023-04-22T09:59:30.064Z,99640.09
2023-04-22T10:02:03.998Z,99646.00
2023-04-22T10:04:32.063Z,99641.83
2023-04-22T10:07:02.098Z,99646.29
2023-04-22T10:09:29.307Z,99648.33
2023-04-22T10:11:58.542Z,99648.63
2023-04-22T10:14:25.638Z,99644.11
2023-04-22T10:16:56.196Z,99638.14
2023-04-22T10:19:25.279Z,99647.71
2023-04-22T10:21:54.277Z,99639.15
2023-04-22T10:24:22.510Z,99638.63
2023-04-22T10:26:57.069Z,99643.26
2023-04-22T10:29:26.685Z,99640.16
2023-04-22T10:32:23.619Z,99641.89
2023-04-22T10:35:05.987Z,99639.95
2023-04-22T10:37:33.718Z,99636.94
2023-04-22T10:40:07.278Z,99637.77
2023-04-22T10:42:36.625Z,99634.91
2023-04-22T10:45:05.784Z,99632.38
2023-04-22T10:47:34.920Z,99634.62
2023-04-22T10:50:23.210Z,99634.76
2023-04-22T10:52:55.772Z,99634.83
2023-04-22T10:55:22.850Z,99633.33
2023-04-22T10:57:50.448Z,99633.61
2023-04-22T11:00:53.346Z,99634.49
2023-04-22T11:03:28.859Z,99636.44
2023-04-22T11:06:18.297Z,99627.40
2023-04-22T11:08:49.464Z,99626.67
2023-04-22T11:11:16.602Z,99631.42
2023-04-22T11:13:46.980Z,99633.67
2023-04-22T11:16:14.721Z,99634.05
2023-04-22T11:18:41.619Z,99640.22
2023-04-22T11:21:09.078Z,99640.08
2023-04-22T11:23:36.281Z,99644.87
2023-04-22T11:26:05.973Z,99638.89
2023-04-22T11:28:34.154Z,99650.73
2023-04-22T11:31:10.335Z,99650.91
2023-04-22T11:33:39.084Z,99648.58
2023-04-22T11:36:15.154Z,99651.98
2023-04-22T11:38:42.123Z,99657.10
2023-04-22T11:41:08.890Z,99654.42
2023-04-22T11:43:46.193Z,99654.98
2023-04-22T11:46:13.565Z,99658.06
2023-04-22T11:48:41.724Z,99658.32
2023-04-22T11:51:10.931Z,99659.05
2023-04-22T11:53:39.559Z,99658.23
2023-04-22T11:56:06.434Z,99659.05
2023-04-22T11:58:33.705Z,99660.40
2023-04-22T12:01:00.551Z,99665.14
2023-04-22T12:03:30.581Z,99666.13
2023-04-22T12:06:03.971Z,99668.30
2023-04-22T12:08:33.404Z,99660.48
2023-04-22T12:11:03.346Z,99662.30
2023-04-22T12:13:40.898Z,99662.83
2023-04-22T12:16:14.062Z,99653.23
2023-04-22T12:18:48.496Z,99654.79
2023-04-22T12:21:18.009Z,99653.13
2023-04-22T12:23:53.302Z,99651.42
2023-04-22T12:26:23.126Z,99647.98
2023-04-22T12:28:53.603Z,99648.65
2023-04-22T12:31:21.148Z,99650.63
2023-04-22T12:33:48.046Z,99645.09
2023-04-22T12:36:15.137Z,99642.86
2023-04-22T12:38:41.878Z,99641.50
2023-04-22T12:41:08.771Z,99650.67
2023-04-22T12:43:36.182Z,99651.73
2023-04-22T12:46:03.872Z,99652.95
2023-04-22T12:48:31.057Z,99652.78
2023-04-22T12:50:58.034Z,99653.77
2023-04-22T12:53:26.619Z,99652.92
2023-04-22T12:55:53.459Z,99648.48
2023-04-22T12:58:21.644Z,99650.33
2023-04-22T13:00:48.422Z,99645.90
2023-04-22T13:03:15.487Z,99650.77
2023-04-22T13:05:44.703Z,99648.93
2023-04-22T13:08:11.368Z,99651.62
2023-04-22T13:10:38.103Z,99653.85
2023-04-22T13:13:17.561Z,99650.31
2023-04-22T13:15:52.556Z,99647.17
2023-04-22T13:18:19.660Z,99649.17
2023-04-22T13:20:47.048Z,99651.41
2023-04-22T13:23:14.238Z,99647.88
2023-04-22T13:25:40.960Z,99648.52
2023-04-22T13:28:07.856Z,99643.73
2023-04-22T13:30:35.739Z,99647.42
2023-04-22T13:33:03.033Z,99649.35
2023-04-22T13:35:31.482Z,99654.33
2023-04-22T13:37:58.399Z,99656.77
2023-04-22T13:40:27.701Z,99656.49
2023-04-22T13:42:54.830Z,99654.95
2023-04-22T13:45:21.722Z,99653.63
2023-04-22T13:47:48.677Z,99651.23
2023-04-22T13:50:15.893Z,99654.40
2023-04-22T13:52:44.537Z,99651.77
2023-04-22T13:55:11.449Z,99654.81
2023-04-22T13:57:38.435Z,99656.09
2023-04-22T14:00:06.165Z,99657.37
2023-04-22T14:02:42.116Z,99653.07
2023-04-22T14:05:10.097Z,99655.85
2023-04-22T14:07:39.359Z,99659.94
2023-04-22T14:10:08.294Z,99664.38
2023-04-22T14:12:36.731Z,99660.89
2023-04-22T14:15:04.130Z,99659.96
2023-04-22T14:17:32.516Z,99661.81
2023-04-22T14:19:59.659Z,99660.02
2023-04-22T14:22:26.483Z,99661.93
2023-04-22T14:24:55.663Z,99665.19
2023-04-22T14:27:22.544Z,99667.15
2023-04-22T14:29:51.922Z,99664.02
2023-04-22T14:32:19.516Z,99663.23
2023-04-22T14:34:47.837Z,99663.30
2023-04-22T14:37:14.828Z,99664.33
2023-04-22T14:39:42.240Z,99670.14
2023-04-22T14:42:10.424Z,99668.27
2023-04-22T14:44:37.257Z,99670.58
2023-04-22T14:47:07.390Z,99666.32
2023-04-22T14:49:37.654Z,99671.04
2023-04-22T14:52:07.076Z,99667.01
2023-04-22T14:54:34.148Z,99672.14
2023-04-22T14:57:02.358Z,99666.77
2023-04-22T14:59:30.797Z,99673.30
2023-04-22T15:02:00.239Z,99672.20
2023-04-22T15:04:28.335Z,99673.59
2023-04-22T15:06:56.950Z,99671.55
2023-04-22T15:09:28.722Z,99676.43
2023-04-22T15:11:59.768Z,99678.61
2023-04-22T15:14:26.490Z,99682.15
2023-04-22T15:16:55.440Z,99681.41
2023-04-22T15:19:22.473Z,99682.89
2023-04-22T15:21:49.371Z,99683.15
2023-04-22T15:24:20.191Z,99682.42
2023-04-22T15:26:48.171Z,99686.33
2023-04-22T15:29:15.009Z,99686.63
2023-04-22T15:31:41.741Z,99685.86
2023-04-22T15:34:11.368Z,99682.07
2023-04-22T15:36:38.261Z,99684.98
2023-04-22T15:39:10.192Z,99687.00
2023-04-22T15:41:37.574Z,99686.29
2023-04-22T15:44:05.908Z,99688.61
2023-04-22T15:46:34.399Z,99690.42
2023-04-22T15:49:07.681Z,99689.56
2023-04-22T15:51:34.561Z,99689.65
2023-04-22T15:54:03.250Z,99696.92
2023-04-22T15:56:32.423Z,99701.02
2023-04-22T15:58:59.454Z,99701.88
2023-04-22T16:01:27.553Z,99705.20
2023-04-22T16:03:54.689Z,99703.91
2023-04-22T16:06:25.394Z,99703.96
2023-04-22T16:08:52.462Z,99702.44
2023-04-22T16:11:19.334Z,99704.61
2023-04-22T16:13:47.572Z,99708.65
2023-04-22T16:16:15.053Z,99710.14
2023-04-22T16:18:44.393Z,99709.31
2023-04-22T16:21:11.366Z,99711.36
2023-04-22T16:23:38.382Z,99713.23
2023-04-22T16:26:06.807Z,99717.36
2023-04-22T16:28:35.890Z,99719.61
2023-04-22T16:31:03.925Z,99720.09
2023-04-22T16:33:32.269Z,99723.14
2023-04-22T16:35:59.226Z,99725.86
2023-04-22T16:38:26.774Z,99728.25
2023-04-22T16:40:53.599Z,99727.69
2023-04-22T16:43:20.728Z,99730.14
2023-04-22T16:45:49.221Z,99736.09
2023-04-22T16:48:18.203Z,99732.15
2023-04-22T16:50:44.960Z,99731.65
2023-04-22T16:53:13.133Z,99737.50
2023-04-22T16:55:40.936Z,99736.89
2023-04-22T16:58:07.725Z,99739.91
2023-04-22T17:00:34.667Z,99742.46
2023-04-22T17:03:05.994Z,99742.36
2023-04-22T17:05:34.076Z,99748.02
2023-04-22T17:08:01.041Z,99749.66
2023-04-22T17:10:29.505Z,99751.45
2023-04-22T17:12:56.871Z,99752.52
2023-04-22T17:15:24.154Z,99754.89
2023-04-22T17:17:51.338Z,99756.13
2023-04-22T17:20:19.456Z,99756.91
2023-04-22T17:22:46.290Z,99757.52
2023-04-22T17:25:13.980Z,99763.29
2023-04-22T17:27:41.037Z,99764.91
2023-04-22T17:30:08.345Z,99773.67
2023-04-22T17:32:37.356Z,99774.28
2023-04-22T17:35:04.388Z,99774.98
2023-04-22T17:37:31.252Z,99782.14
2023-04-22T17:39:58.038Z,99783.17
2023-04-22T17:42:32.218Z,99786.58
2023-04-22T17:45:06.696Z,99790.67
2023-04-22T17:47:35.048Z,99794.36
2023-04-22T17:50:01.965Z,99795.58
2023-04-22T17:52:29.009Z,99799.30
2023-04-22T17:54:59.918Z,99799.38
2023-04-22T17:57:29.100Z,99804.66
2023-04-22T17:59:57.278Z,99808.52
2023-04-22T18:02:25.903Z,99805.24
2023-04-22T18:04:54.530Z,99809.59
2023-04-22T18:07:23.102Z,99813.39
2023-04-22T18:09:51.402Z,99817.38
2023-04-22T18:12:24.546Z,99817.66
2023-04-22T18:14:52.459Z,99822.59
2023-04-22T18:17:19.557Z,99828.59
2023-04-22T18:19:50.421Z,99828.89
2023-04-22T18:22:17.870Z,99831.65
2023-04-22T18:24:47.321Z,99833.65
2023-04-22T18:27:14.067Z,99837.31
2023-04-22T18:29:41.309Z,99835.70
2023-04-22T18:32:08.369Z,99836.09
2023-04-22T18:34:36.583Z,99838.82
2023-04-22T18:37:03.786Z,99836.76
2023-04-22T18:39:30.595Z,99836.90
2023-04-22T18:41:58.768Z,99835.40
2023-04-22T18:44:26.587Z,99839.65
2023-04-22T18:46:56.213Z,99841.58
2023-04-22T18:49:23.024Z,99840.39
2023-04-22T18:51:50.298Z,99844.52
2023-04-22T18:54:18.758Z,99847.26
2023-04-22T18:56:46.138Z,99848.59
2023-04-22T18:59:13.620Z,99851.14
2023-04-22T19:01:40.531Z,99850.61
2023-04-22T19:04:07.538Z,99851.23
2023-04-22T19:06:35.601Z,99851.42
2023-04-22T19:09:05.036Z,99854.65
2023-04-22T19:11:32.039Z,99857.52
2023-04-22T19:14:02.395Z,99852.34
2023-04-22T19:16:34.432Z,99849.20
2023-04-22T19:19:01.156Z,99854.08
2023-04-22T19:21:29.314Z,99855.17
2023-04-22T19:23:56.147Z,99855.96
2023-04-22T19:26:23.063Z,99857.29
2023-04-22T19:28:50.083Z,99861.18
2023-04-22T19:31:17.256Z,99861.40
2023-04-22T19:33:44.091Z,99864.45
2023-04-22T19:36:10.808Z,99865.80
2023-04-22T19:38:37.700Z,99871.07
2023-04-22T19:41:04.460Z,99873.52
2023-04-22T19:43:32.336Z,99871.81
2023-04-22T19:45:59.187Z,99871.98
2023-04-22T19:48:26.554Z,99875.48
2023-04-22T19:50:53.397Z,99881.00
2023-04-22T19:53:20.257Z,99877.29
2023-04-22T19:55:47.229Z,99882.92
2023-04-22T19:58:15.028Z,99880.55
2023-04-22T20:00:42.311Z,99879.91
2023-04-22T20:03:09.740Z,99884.91
2023-04-22T20:05:37.204Z,99884.63
2023-04-22T20:08:04.388Z,99883.52
2023-04-22T20:10:32.444Z,99885.06
2023-04-22T20:12:59.426Z,99887.11
2023-04-22T20:15:27.351Z,99887.08
2023-04-22T20:17:55.429Z,99888.21
2023-04-22T20:20:23.298Z,99891.73
2023-04-22T20:22:50.942Z,99890.57
2023-04-22T20:25:18.307Z,99889.19
2023-04-22T20:27:45.456Z,99893.26
2023-04-22T20:30:13.776Z,99892.61
2023-04-22T20:32:42.100Z,99893.07
2023-04-22T20:35:15.900Z,99893.02
2023-04-22T20:37:45.543Z,99886.54
2023-04-22T20:40:14.297Z,99887.96
2023-04-22T20:42:41.868Z,99887.59
2023-04-22T20:45:14.405Z,99887.11
2023-04-22T20:47:42.064Z,99888.08
2023-04-22T20:50:09.484Z,99885.77
2023-04-22T20:52:36.604Z,99889.45
2023-04-22T20:55:06.146Z,99891.44
2023-04-22T20:57:32.894Z,99891.15
2023-04-22T20:59:59.618Z,99895.22
2023-04-22T21:02:26.541Z,99891.34
2023-04-22T21:04:54.975Z,99890.54
2023-04-22T21:07:25.559Z,99890.23
2023-04-22T21:09:52.587Z,99891.88
2023-04-22T21:12:19.627Z,99888.31
2023-04-22T21:14:47.104Z,99886.21
2023-04-22T21:17:22.359Z,99891.56
2023-04-22T21:19:50.022Z,99888.55
2023-04-22T21:22:19.532Z,99893.73
2023-04-22T21:24:50.072Z,99891.80
2023-04-22T21:27:17.780Z,99893.40
2023-04-22T21:29:45.912Z,99894.84
2023-04-22T21:32:13.986Z,99899.25
2023-04-22T21:34:41.266Z,99897.52
2023-04-22T21:37:08.366Z,99899.16
2023-04-22T21:39:36.697Z,99903.73
2023-04-22T21:42:07.070Z,99902.90
2023-04-22T21:44:35.543Z,99904.17
2023-04-22T21:47:02.476Z,99902.74
2023-04-22T21:49:29.598Z,99906.44
2023-04-22T21:51:57.073Z,99909.48
2023-04-22T21:54:24.185Z,99908.10
2023-04-22T21:56:51.703Z,99907.96
2023-04-22T21:59:18.736Z,99909.56
2023-04-22T22:01:45.616Z,99905.95
2023-04-22T22:04:15.453Z,99906.29
2023-04-22T22:06:44.292Z,99912.05
2023-04-22T22:09:11.823Z,99908.11
2023-04-22T22:11:39.293Z,99910.02
2023-04-22T22:14:06.366Z,99913.75
2023-04-22T22:16:34.159Z,99912.11
2023-04-22T22:19:03.844Z,99913.35
2023-04-22T22:21:32.271Z,99912.11
2023-04-22T22:23:59.445Z,99914.17
2023-04-22T22:26:26.947Z,99912.61
2023-04-22T22:28:53.936Z,99915.55
2023-04-22T22:31:22.230Z,99910.56
2023-04-22T22:33:49.793Z,99912.17
2023-04-22T22:36:18.409Z,99911.83
2023-04-22T22:38:45.808Z,99909.89
2023-04-22T22:41:13.139Z,99909.09
2023-04-22T22:43:40.081Z,99909.61
2023-04-22T22:46:06.779Z,99909.43
2023-04-22T22:48:34.081Z,99910.58
2023-04-22T22:51:02.360Z,99913.04
2023-04-22T22:53:32.366Z,99911.23
2023-04-22T22:55:59.265Z,99912.27
2023-04-22T22:58:26.304Z,99914.36
2023-04-22T23:00:53.251Z,99913.21
2023-04-22T23:03:22.917Z,99915.38
2023-04-22T23:05:50.256Z,99919.39
2023-04-22T23:08:19.374Z,99918.13
2023-04-22T23:10:47.874Z,99917.21
2023-04-22T23:13:14.903Z,99917.67
2023-04-22T23:15:41.981Z,99916.41
2023-04-22T23:18:10.030Z,99918.65
2023-04-22T23:20:38.841Z,99921.55
2023-04-22T23:23:05.770Z,99918.80
2023-04-22T23:25:34.003Z,99923.92
2023-04-22T23:28:01.498Z,99922.15
2023-04-22T23:30:28.790Z,99921.74
2023-04-22T23:32:57.423Z,99918.45
2023-04-22T23:35:26.818Z,99920.06
2023-04-22T23:37:54.283Z,99919.63
2023-04-22T23:40:21.155Z,99920.49
2023-04-22T23:42:48.656Z,99921.76
2023-04-22T23:45:15.529Z,99924.27
2023-04-22T23:47:42.840Z,99922.33
2023-04-22T23:50:10.442Z,99919.86
2023-04-22T23:52:40.435Z,99924.71
2023-04-22T23:55:31.240Z,99922.05
2023-04-22T23:57:58.145Z,99918.76
